sensor_id;sensor_type;location;lat;lon;timestamp;P1;durP1;ratioP1;P2;durP2;ratioP2
71959;SDS011;59832;51.146;14.024;2024-02-26T00:01:45;29.05;;;19.20;;
71959;SDS011;59832;51.146;14.024;2024-02-26T00:04:11;28.17;;;19.17;;
71959;SDS011;59832;51.146;14.024;2024-02-26T00:06:38;31.30;;;20.27;;
71959;SDS011;59832;51.146;14.024;2024-02-26T00:09:09;33.53;;;20.15;;
71959;SDS011;59832;51.146;14.024;2024-02-26T00:11:36;29.58;;;19.90;;
71959;SDS011;59832;51.146;14.024;2024-02-26T00:14:03;31.58;;;20.60;;
71959;SDS011;59832;51.146;14.024;2024-02-26T00:16:30;28.13;;;20.17;;
71959;SDS011;59832;51.146;14.024;2024-02-26T00:18:57;56.85;;;24.00;;
71959;SDS011;59832;51.146;14.024;2024-02-26T00:21:24;42.47;;;22.50;;
71959;SDS011;59832;51.146;14.024;2024-02-26T00:23:52;38.17;;;21.85;;
71959;SDS011;59832;51.146;14.024;2024-02-26T00:26:19;30.05;;;19.83;;
71959;SDS011;59832;51.146;14.024;2024-02-26T00:28:45;28.02;;;19.30;;
71959;SDS011;59832;51.146;14.024;2024-02-26T00:31:12;27.70;;;19.25;;
71959;SDS011;59832;51.146;14.024;2024-02-26T00:33:38;30.25;;;20.70;;
71959;SDS011;59832;51.146;14.024;2024-02-26T00:36:05;35.10;;;20.63;;
71959;SDS011;59832;51.146;14.024;2024-02-26T00:38:32;33.77;;;21.63;;
71959;SDS011;59832;51.146;14.024;2024-02-26T00:40:59;36.72;;;22.65;;
71959;SDS011;59832;51.146;14.024;2024-02-26T00:43:25;31.85;;;21.42;;
71959;SDS011;59832;51.146;14.024;2024-02-26T00:45:52;32.78;;;21.83;;
71959;SDS011;59832;51.146;14.024;2024-02-26T00:48:18;31.95;;;21.08;;
71959;SDS011;59832;51.146;14.024;2024-02-26T00:50:45;30.45;;;21.00;;
71959;SDS011;59832;51.146;14.024;2024-02-26T00:53:12;31.10;;;21.03;;
71959;SDS011;59832;51.146;14.024;2024-02-26T00:55:38;30.60;;;19.92;;
71959;SDS011;59832;51.146;14.024;2024-02-26T00:58:05;30.60;;;19.65;;
71959;SDS011;59832;51.146;14.024;2024-02-26T01:00:32;32.88;;;21.10;;
71959;SDS011;59832;51.146;14.024;2024-02-26T01:02:58;31.45;;;21.15;;
71959;SDS011;59832;51.146;14.024;2024-02-26T01:07:52;29.87;;;19.13;;
71959;SDS011;59832;51.146;14.024;2024-02-26T01:10:19;28.15;;;19.00;;
71959;SDS011;59832;51.146;14.024;2024-02-26T01:12:46;29.58;;;18.67;;
71959;SDS011;59832;51.146;14.024;2024-02-26T01:15:12;28.33;;;19.13;;
71959;SDS011;59832;51.146;14.024;2024-02-26T01:17:39;28.08;;;18.85;;
71959;SDS011;59832;51.146;14.024;2024-02-26T01:20:06;27.25;;;18.85;;
71959;SDS011;59832;51.146;14.024;2024-02-26T01:22:35;28.50;;;19.30;;
71959;SDS011;59832;51.146;14.024;2024-02-26T01:25:01;34.05;;;20.67;;
71959;SDS011;59832;51.146;14.024;2024-02-26T01:27:28;29.92;;;18.17;;
71959;SDS011;59832;51.146;14.024;2024-02-26T01:29:55;27.45;;;18.85;;
71959;SDS011;59832;51.146;14.024;2024-02-26T01:32:21;29.23;;;19.05;;
71959;SDS011;59832;51.146;14.024;2024-02-26T01:34:48;25.27;;;17.90;;
71959;SDS011;59832;51.146;14.024;2024-02-26T01:37:14;28.13;;;20.38;;
71959;SDS011;59832;51.146;14.024;2024-02-26T01:39:41;31.85;;;20.83;;
71959;SDS011;59832;51.146;14.024;2024-02-26T01:42:08;29.80;;;20.48;;
71959;SDS011;59832;51.146;14.024;2024-02-26T01:44:34;32.10;;;20.80;;
71959;SDS011;59832;51.146;14.024;2024-02-26T01:47:01;33.15;;;21.00;;
71959;SDS011;59832;51.146;14.024;2024-02-26T01:49:29;32.67;;;20.23;;
71959;SDS011;59832;51.146;14.024;2024-02-26T01:51:56;31.73;;;20.73;;
71959;SDS011;59832;51.146;14.024;2024-02-26T01:54:23;30.27;;;20.30;;
71959;SDS011;59832;51.146;14.024;2024-02-26T01:56:50;32.38;;;21.45;;
71959;SDS011;59832;51.146;14.024;2024-02-26T01:59:17;32.38;;;21.13;;
71959;SDS011;59832;51.146;14.024;2024-02-26T02:01:44;34.75;;;20.90;;
71959;SDS011;59832;51.146;14.024;2024-02-26T02:04:14;30.35;;;21.80;;
71959;SDS011;59832;51.146;14.024;2024-02-26T02:06:42;33.90;;;22.35;;
71959;SDS011;59832;51.146;14.024;2024-02-26T02:09:11;30.23;;;20.15;;
71959;SDS011;59832;51.146;14.024;2024-02-26T02:11:38;31.23;;;20.33;;
71959;SDS011;59832;51.146;14.024;2024-02-26T02:14:05;35.10;;;21.67;;
71959;SDS011;59832;51.146;14.024;2024-02-26T02:16:32;29.13;;;19.75;;
71959;SDS011;59832;51.146;14.024;2024-02-26T02:18:58;30.98;;;20.02;;
71959;SDS011;59832;51.146;14.024;2024-02-26T02:21:25;27.27;;;18.50;;
71959;SDS011;59832;51.146;14.024;2024-02-26T02:23:52;29.13;;;19.52;;
71959;SDS011;59832;51.146;14.024;2024-02-26T02:26:18;31.77;;;19.75;;
71959;SDS011;59832;51.146;14.024;2024-02-26T02:28:45;31.20;;;18.43;;
71959;SDS011;59832;51.146;14.024;2024-02-26T02:33:39;27.67;;;18.80;;
71959;SDS011;59832;51.146;14.024;2024-02-26T02:36:06;30.27;;;19.10;;
71959;SDS011;59832;51.146;14.024;2024-02-26T02:38:36;26.58;;;17.80;;
71959;SDS011;59832;51.146;14.024;2024-02-26T02:41:03;28.45;;;18.92;;
71959;SDS011;59832;51.146;14.024;2024-02-26T02:43:31;25.73;;;17.90;;
71959;SDS011;59832;51.146;14.024;2024-02-26T02:45:57;30.57;;;19.03;;
71959;SDS011;59832;51.146;14.024;2024-02-26T02:48:24;29.30;;;18.58;;
71959;SDS011;59832;51.146;14.024;2024-02-26T02:50:51;27.90;;;18.92;;
71959;SDS011;59832;51.146;14.024;2024-02-26T02:53:17;27.20;;;18.17;;
71959;SDS011;59832;51.146;14.024;2024-02-26T02:55:44;28.95;;;18.27;;
71959;SDS011;59832;51.146;14.024;2024-02-26T02:58:11;26.58;;;17.98;;
71959;SDS011;59832;51.146;14.024;2024-02-26T03:00:37;25.67;;;17.83;;
71959;SDS011;59832;51.146;14.024;2024-02-26T03:03:04;26.30;;;17.87;;
71959;SDS011;59832;51.146;14.024;2024-02-26T03:05:31;28.10;;;17.63;;
71959;SDS011;59832;51.146;14.024;2024-02-26T03:07:57;26.25;;;16.73;;
71959;SDS011;59832;51.146;14.024;2024-02-26T03:10:24;24.10;;;17.30;;
71959;SDS011;59832;51.146;14.024;2024-02-26T03:12:50;25.63;;;16.55;;
71959;SDS011;59832;51.146;14.024;2024-02-26T03:15:17;26.15;;;16.75;;
71959;SDS011;59832;51.146;14.024;2024-02-26T03:17:43;30.85;;;16.75;;
71959;SDS011;59832;51.146;14.024;2024-02-26T03:20:10;25.25;;;16.92;;
71959;SDS011;59832;51.146;14.024;2024-02-26T03:22:38;26.38;;;17.10;;
71959;SDS011;59832;51.146;14.024;2024-02-26T03:25:06;25.13;;;16.55;;
71959;SDS011;59832;51.146;14.024;2024-02-26T03:27:33;26.20;;;17.23;;
71959;SDS011;59832;51.146;14.024;2024-02-26T03:30:00;26.80;;;16.80;;
71959;SDS011;59832;51.146;14.024;2024-02-26T03:32:26;25.10;;;17.00;;
71959;SDS011;59832;51.146;14.024;2024-02-26T03:34:53;25.87;;;17.67;;
71959;SDS011;59832;51.146;14.024;2024-02-26T03:37:22;26.25;;;16.48;;
71959;SDS011;59832;51.146;14.024;2024-02-26T03:39:48;23.65;;;16.25;;
71959;SDS011;59832;51.146;14.024;2024-02-26T03:42:15;21.85;;;15.00;;
71959;SDS011;59832;51.146;14.024;2024-02-26T03:44:42;22.35;;;15.15;;
71959;SDS011;59832;51.146;14.024;2024-02-26T03:47:09;21.05;;;14.50;;
71959;SDS011;59832;51.146;14.024;2024-02-26T03:49:35;19.95;;;14.43;;
71959;SDS011;59832;51.146;14.024;2024-02-26T03:52:02;25.60;;;15.00;;
71959;SDS011;59832;51.146;14.024;2024-02-26T03:54:29;24.52;;;15.10;;
71959;SDS011;59832;51.146;14.024;2024-02-26T03:56:55;20.77;;;14.45;;
71959;SDS011;59832;51.146;14.024;2024-02-26T03:59:22;25.67;;;14.27;;
71959;SDS011;59832;51.146;14.024;2024-02-26T04:01:51;22.02;;;14.50;;
71959;SDS011;59832;51.146;14.024;2024-02-26T04:04:17;21.77;;;14.30;;
71959;SDS011;59832;51.146;14.024;2024-02-26T04:06:44;20.93;;;14.50;;
71959;SDS011;59832;51.146;14.024;2024-02-26T04:09:15;27.15;;;14.85;;
71959;SDS011;59832;51.146;14.024;2024-02-26T04:11:42;22.77;;;14.68;;
71959;SDS011;59832;51.146;14.024;2024-02-26T04:14:11;20.60;;;13.80;;
71959;SDS011;59832;51.146;14.024;2024-02-26T04:16:38;20.30;;;13.07;;
71959;SDS011;59832;51.146;14.024;2024-02-26T04:19:05;20.27;;;13.40;;
71959;SDS011;59832;51.146;14.024;2024-02-26T04:21:33;24.50;;;12.48;;
71959;SDS011;59832;51.146;14.024;2024-02-26T04:24:00;19.45;;;12.82;;
71959;SDS011;59832;51.146;14.024;2024-02-26T04:26:29;21.90;;;12.52;;
71959;SDS011;59832;51.146;14.024;2024-02-26T04:28:56;22.75;;;11.88;;
71959;SDS011;59832;51.146;14.024;2024-02-26T04:31:23;16.55;;;12.20;;
71959;SDS011;59832;51.146;14.024;2024-02-26T04:33:49;21.05;;;11.88;;
71959;SDS011;59832;51.146;14.024;2024-02-26T04:36:16;22.70;;;12.43;;
71959;SDS011;59832;51.146;14.024;2024-02-26T04:38:43;20.27;;;11.65;;
71959;SDS011;59832;51.146;14.024;2024-02-26T04:41:10;20.17;;;12.25;;
71959;SDS011;59832;51.146;14.024;2024-02-26T04:43:37;17.15;;;11.48;;
71959;SDS011;59832;51.146;14.024;2024-02-26T04:46:10;16.80;;;10.45;;
71959;SDS011;59832;51.146;14.024;2024-02-26T04:48:37;18.77;;;10.77;;
71959;SDS011;59832;51.146;14.024;2024-02-26T04:51:04;19.30;;;10.45;;
71959;SDS011;59832;51.146;14.024;2024-02-26T04:53:31;16.75;;;10.43;;
71959;SDS011;59832;51.146;14.024;2024-02-26T04:55:57;16.25;;;10.52;;
71959;SDS011;59832;51.146;14.024;2024-02-26T04:58:24;16.52;;;10.40;;
71959;SDS011;59832;51.146;14.024;2024-02-26T05:00:50;14.82;;;10.65;;
71959;SDS011;59832;51.146;14.024;2024-02-26T05:03:17;20.17;;;11.88;;
71959;SDS011;59832;51.146;14.024;2024-02-26T05:05:43;18.00;;;11.70;;
71959;SDS011;59832;51.146;14.024;2024-02-26T05:08:10;19.95;;;10.80;;
71959;SDS011;59832;51.146;14.024;2024-02-26T05:10:37;15.75;;;10.50;;
71959;SDS011;59832;51.146;14.024;2024-02-26T05:13:07;13.65;;;9.80;;
71959;SDS011;59832;51.146;14.024;2024-02-26T05:15:33;12.80;;;9.93;;
71959;SDS011;59832;51.146;14.024;2024-02-26T05:18:00;13.60;;;8.93;;
71959;SDS011;59832;51.146;14.024;2024-02-26T05:20:27;14.75;;;9.35;;
71959;SDS011;59832;51.146;14.024;2024-02-26T05:22:53;13.98;;;9.40;;
71959;SDS011;59832;51.146;14.024;2024-02-26T05:25:20;17.63;;;8.50;;
71959;SDS011;59832;51.146;14.024;2024-02-26T05:27:46;12.45;;;8.93;;
71959;SDS011;59832;51.146;14.024;2024-02-26T05:30:13;14.77;;;8.77;;
71959;SDS011;59832;51.146;14.024;2024-02-26T05:32:39;13.20;;;7.97;;
71959;SDS011;59832;51.146;14.024;2024-02-26T05:35:06;19.58;;;8.55;;
71959;SDS011;59832;51.146;14.024;2024-02-26T05:37:33;11.13;;;8.70;;
71959;SDS011;59832;51.146;14.024;2024-02-26T05:40:00;14.20;;;9.05;;
71959;SDS011;59832;51.146;14.024;2024-02-26T05:42:26;13.32;;;8.60;;
71959;SDS011;59832;51.146;14.024;2024-02-26T05:44:53;12.45;;;8.45;;
71959;SDS011;59832;51.146;14.024;2024-02-26T05:47:19;16.93;;;8.33;;
71959;SDS011;59832;51.146;14.024;2024-02-26T05:49:46;14.65;;;8.77;;
71959;SDS011;59832;51.146;14.024;2024-02-26T05:52:12;11.83;;;8.10;;
71959;SDS011;59832;51.146;14.024;2024-02-26T05:54:39;13.18;;;8.45;;
71959;SDS011;59832;51.146;14.024;2024-02-26T05:57:05;15.98;;;8.88;;
71959;SDS011;59832;51.146;14.024;2024-02-26T05:59:32;14.30;;;9.48;;
71959;SDS011;59832;51.146;14.024;2024-02-26T06:01:58;23.48;;;13.00;;
71959;SDS011;59832;51.146;14.024;2024-02-26T06:04:25;22.05;;;15.20;;
71959;SDS011;59832;51.146;14.024;2024-02-26T06:06:51;14.33;;;9.10;;
71959;SDS011;59832;51.146;14.024;2024-02-26T06:09:18;16.67;;;9.47;;
71959;SDS011;59832;51.146;14.024;2024-02-26T06:11:44;17.35;;;9.63;;
71959;SDS011;59832;51.146;14.024;2024-02-26T06:14:11;18.02;;;9.40;;
71959;SDS011;59832;51.146;14.024;2024-02-26T06:16:39;13.02;;;8.07;;
71959;SDS011;59832;51.146;14.024;2024-02-26T06:19:05;18.53;;;9.10;;
71959;SDS011;59832;51.146;14.024;2024-02-26T06:21:34;17.00;;;9.60;;
71959;SDS011;59832;51.146;14.024;2024-02-26T06:24:01;13.23;;;8.50;;
71959;SDS011;59832;51.146;14.024;2024-02-26T06:26:28;13.23;;;9.70;;
71959;SDS011;59832;51.146;14.024;2024-02-26T06:31:22;17.43;;;10.70;;
71959;SDS011;59832;51.146;14.024;2024-02-26T06:33:49;16.23;;;11.93;;
71959;SDS011;59832;51.146;14.024;2024-02-26T06:36:16;18.55;;;9.85;;
71959;SDS011;59832;51.146;14.024;2024-02-26T06:38:42;15.73;;;9.73;;
71959;SDS011;59832;51.146;14.024;2024-02-26T06:41:09;14.73;;;8.25;;
71959;SDS011;59832;51.146;14.024;2024-02-26T06:43:35;15.10;;;8.15;;
71959;SDS011;59832;51.146;14.024;2024-02-26T06:46:02;14.57;;;8.18;;
71959;SDS011;59832;51.146;14.024;2024-02-26T06:48:29;12.60;;;8.07;;
71959;SDS011;59832;51.146;14.024;2024-02-26T06:50:55;8.98;;;7.13;;
71959;SDS011;59832;51.146;14.024;2024-02-26T06:53:22;12.63;;;6.40;;
71959;SDS011;59832;51.146;14.024;2024-02-26T06:55:49;12.77;;;6.63;;
71959;SDS011;59832;51.146;14.024;2024-02-26T06:58:16;8.13;;;5.75;;
71959;SDS011;59832;51.146;14.024;2024-02-26T07:00:43;8.18;;;5.32;;
71959;SDS011;59832;51.146;14.024;2024-02-26T07:03:10;11.38;;;5.05;;
71959;SDS011;59832;51.146;14.024;2024-02-26T07:05:37;7.60;;;5.30;;
71959;SDS011;59832;51.146;14.024;2024-02-26T07:08:03;10.02;;;5.70;;
71959;SDS011;59832;51.146;14.024;2024-02-26T07:10:30;10.73;;;5.20;;
71959;SDS011;59832;51.146;14.024;2024-02-26T07:12:56;10.52;;;6.13;;
71959;SDS011;59832;51.146;14.024;2024-02-26T07:15:23;10.50;;;6.13;;
71959;SDS011;59832;51.146;14.024;2024-02-26T07:17:49;10.73;;;5.93;;
71959;SDS011;59832;51.146;14.024;2024-02-26T07:20:16;9.98;;;5.78;;
71959;SDS011;59832;51.146;14.024;2024-02-26T07:22:45;9.85;;;5.78;;
71959;SDS011;59832;51.146;14.024;2024-02-26T07:25:11;10.73;;;5.60;;
71959;SDS011;59832;51.146;14.024;2024-02-26T07:27:39;9.73;;;5.25;;
71959;SDS011;59832;51.146;14.024;2024-02-26T07:30:06;10.83;;;5.33;;
71959;SDS011;59832;51.146;14.024;2024-02-26T07:32:34;9.95;;;5.43;;
71959;SDS011;59832;51.146;14.024;2024-02-26T07:35:01;7.22;;;4.93;;
71959;SDS011;59832;51.146;14.024;2024-02-26T07:37:27;9.63;;;4.85;;
71959;SDS011;59832;51.146;14.024;2024-02-26T07:39:54;6.03;;;4.80;;
71959;SDS011;59832;51.146;14.024;2024-02-26T07:42:21;10.20;;;5.20;;
71959;SDS011;59832;51.146;14.024;2024-02-26T07:44:47;11.60;;;4.90;;
71959;SDS011;59832;51.146;14.024;2024-02-26T07:47:14;9.73;;;4.25;;
71959;SDS011;59832;51.146;14.024;2024-02-26T07:49:40;9.48;;;4.75;;
71959;SDS011;59832;51.146;14.024;2024-02-26T07:52:07;6.87;;;4.60;;
71959;SDS011;59832;51.146;14.024;2024-02-26T07:54:33;8.77;;;4.20;;
71959;SDS011;59832;51.146;14.024;2024-02-26T07:57:00;10.23;;;4.97;;
71959;SDS011;59832;51.146;14.024;2024-02-26T07:59:30;9.85;;;4.85;;
71959;SDS011;59832;51.146;14.024;2024-02-26T08:01:56;7.80;;;4.83;;
71959;SDS011;59832;51.146;14.024;2024-02-26T08:04:24;10.48;;;4.93;;
71959;SDS011;59832;51.146;14.024;2024-02-26T08:06:53;8.80;;;5.07;;
71959;SDS011;59832;51.146;14.024;2024-02-26T08:09:19;8.33;;;5.53;;
71959;SDS011;59832;51.146;14.024;2024-02-26T08:11:46;7.70;;;4.65;;
71959;SDS011;59832;51.146;14.024;2024-02-26T08:14:13;8.40;;;4.40;;
71959;SDS011;59832;51.146;14.024;2024-02-26T08:16:40;8.45;;;5.00;;
71959;SDS011;59832;51.146;14.024;2024-02-26T08:19:06;7.10;;;4.43;;
71959;SDS011;59832;51.146;14.024;2024-02-26T08:21:33;6.47;;;4.90;;
71959;SDS011;59832;51.146;14.024;2024-02-26T08:23:59;7.65;;;4.97;;
71959;SDS011;59832;51.146;14.024;2024-02-26T08:26:26;9.47;;;5.30;;
71959;SDS011;59832;51.146;14.024;2024-02-26T08:28:52;8.35;;;5.15;;
71959;SDS011;59832;51.146;14.024;2024-02-26T08:31:20;8.43;;;5.15;;
71959;SDS011;59832;51.146;14.024;2024-02-26T08:33:47;8.57;;;5.80;;
71959;SDS011;59832;51.146;14.024;2024-02-26T08:36:14;8.47;;;5.70;;
71959;SDS011;59832;51.146;14.024;2024-02-26T08:38:40;8.27;;;5.80;;
71959;SDS011;59832;51.146;14.024;2024-02-26T08:41:07;11.00;;;6.18;;
71959;SDS011;59832;51.146;14.024;2024-02-26T08:43:33;6.72;;;5.13;;
71959;SDS011;59832;51.146;14.024;2024-02-26T08:46:00;9.20;;;5.80;;
71959;SDS011;59832;51.146;14.024;2024-02-26T08:48:26;8.00;;;6.10;;
71959;SDS011;59832;51.146;14.024;2024-02-26T08:50:53;11.73;;;6.95;;
71959;SDS011;59832;51.146;14.024;2024-02-26T08:53:20;10.70;;;7.27;;
71959;SDS011;59832;51.146;14.024;2024-02-26T08:55:56;11.07;;;7.30;;
71959;SDS011;59832;51.146;14.024;2024-02-26T08:58:23;10.07;;;6.40;;
71959;SDS011;59832;51.146;14.024;2024-02-26T09:00:49;8.90;;;7.22;;
71959;SDS011;59832;51.146;14.024;2024-02-26T09:03:16;11.75;;;6.88;;
71959;SDS011;59832;51.146;14.024;2024-02-26T09:05:43;10.60;;;7.60;;
71959;SDS011;59832;51.146;14.024;2024-02-26T09:08:09;11.80;;;7.10;;
71959;SDS011;59832;51.146;14.024;2024-02-26T09:10:36;12.73;;;8.23;;
71959;SDS011;59832;51.146;14.024;2024-02-26T09:13:02;12.77;;;7.90;;
71959;SDS011;59832;51.146;14.024;2024-02-26T09:15:29;11.10;;;7.67;;
71959;SDS011;59832;51.146;14.024;2024-02-26T09:17:56;11.18;;;7.45;;
71959;SDS011;59832;51.146;14.024;2024-02-26T09:20:23;12.00;;;8.27;;
71959;SDS011;59832;51.146;14.024;2024-02-26T09:22:50;11.45;;;7.88;;
71959;SDS011;59832;51.146;14.024;2024-02-26T09:25:16;9.13;;;7.75;;
71959;SDS011;59832;51.146;14.024;2024-02-26T09:27:43;12.73;;;7.82;;
71959;SDS011;59832;51.146;14.024;2024-02-26T09:30:11;8.55;;;7.72;;
71959;SDS011;59832;51.146;14.024;2024-02-26T09:32:39;13.38;;;8.50;;
71959;SDS011;59832;51.146;14.024;2024-02-26T09:35:06;9.85;;;8.63;;
71959;SDS011;59832;51.146;14.024;2024-02-26T09:37:33;13.52;;;8.73;;
71959;SDS011;59832;51.146;14.024;2024-02-26T09:40:00;10.98;;;8.40;;
71959;SDS011;59832;51.146;14.024;2024-02-26T09:42:27;11.20;;;7.73;;
71959;SDS011;59832;51.146;14.024;2024-02-26T09:44:54;12.57;;;8.35;;
71959;SDS011;59832;51.146;14.024;2024-02-26T09:47:22;9.77;;;8.02;;
71959;SDS011;59832;51.146;14.024;2024-02-26T09:49:51;11.95;;;7.65;;
71959;SDS011;59832;51.146;14.024;2024-02-26T09:52:19;10.75;;;7.88;;
71959;SDS011;59832;51.146;14.024;2024-02-26T09:54:49;9.00;;;7.60;;
71959;SDS011;59832;51.146;14.024;2024-02-26T09:57:16;9.90;;;7.80;;
71959;SDS011;59832;51.146;14.024;2024-02-26T09:59:43;10.43;;;7.78;;
71959;SDS011;59832;51.146;14.024;2024-02-26T10:02:13;12.55;;;7.45;;
71959;SDS011;59832;51.146;14.024;2024-02-26T10:04:40;9.95;;;7.45;;
71959;SDS011;59832;51.146;14.024;2024-02-26T10:07:10;8.55;;;7.30;;
71959;SDS011;59832;51.146;14.024;2024-02-26T10:09:38;11.18;;;7.70;;
71959;SDS011;59832;51.146;14.024;2024-02-26T10:12:07;12.52;;;8.50;;
71959;SDS011;59832;51.146;14.024;2024-02-26T10:14:36;11.57;;;7.93;;
71959;SDS011;59832;51.146;14.024;2024-02-26T10:17:03;13.93;;;8.63;;
71959;SDS011;59832;51.146;14.024;2024-02-26T10:19:34;12.07;;;8.35;;
71959;SDS011;59832;51.146;14.024;2024-02-26T10:22:04;11.68;;;8.57;;
71959;SDS011;59832;51.146;14.024;2024-02-26T10:24:31;10.93;;;8.85;;
71959;SDS011;59832;51.146;14.024;2024-02-26T10:26:59;12.43;;;8.70;;
71959;SDS011;59832;51.146;14.024;2024-02-26T10:29:25;10.93;;;8.53;;
71959;SDS011;59832;51.146;14.024;2024-02-26T10:31:52;13.03;;;8.53;;
71959;SDS011;59832;51.146;14.024;2024-02-26T10:34:19;9.68;;;7.75;;
71959;SDS011;59832;51.146;14.024;2024-02-26T10:39:19;10.90;;;7.82;;
71959;SDS011;59832;51.146;14.024;2024-02-26T10:41:46;11.68;;;7.65;;
71959;SDS011;59832;51.146;14.024;2024-02-26T10:44:13;9.93;;;7.97;;
71959;SDS011;59832;51.146;14.024;2024-02-26T10:46:44;8.85;;;7.50;;
71959;SDS011;59832;51.146;14.024;2024-02-26T10:49:14;13.48;;;8.10;;
71959;SDS011;59832;51.146;14.024;2024-02-26T10:51:45;10.45;;;7.82;;
71959;SDS011;59832;51.146;14.024;2024-02-26T10:54:16;12.82;;;7.82;;
71959;SDS011;59832;51.146;14.024;2024-02-26T10:56:43;9.50;;;7.50;;
71959;SDS011;59832;51.146;14.024;2024-02-26T10:59:12;9.50;;;7.10;;
71959;SDS011;59832;51.146;14.024;2024-02-26T11:04:08;11.98;;;7.60;;
71959;SDS011;59832;51.146;14.024;2024-02-26T11:06:35;12.50;;;7.43;;
71959;SDS011;59832;51.146;14.024;2024-02-26T11:11:30;10.10;;;8.02;;
71959;SDS011;59832;51.146;14.024;2024-02-26T11:13:58;10.02;;;7.80;;
71959;SDS011;59832;51.146;14.024;2024-02-26T11:16:25;10.63;;;7.85;;
71959;SDS011;59832;51.146;14.024;2024-02-26T11:18:52;13.50;;;8.88;;
71959;SDS011;59832;51.146;14.024;2024-02-26T11:21:22;9.48;;;7.65;;
71959;SDS011;59832;51.146;14.024;2024-02-26T11:24:09;12.95;;;7.68;;
71959;SDS011;59832;51.146;14.024;2024-02-26T11:26:42;9.77;;;8.25;;
71959;SDS011;59832;51.146;14.024;2024-02-26T11:29:15;9.95;;;7.80;;
71959;SDS011;59832;51.146;14.024;2024-02-26T11:31:45;12.57;;;7.55;;
71959;SDS011;59832;51.146;14.024;2024-02-26T11:36:39;11.35;;;7.40;;
71959;SDS011;59832;51.146;14.024;2024-02-26T11:39:06;11.05;;;8.07;;
71959;SDS011;59832;51.146;14.024;2024-02-26T11:41:33;11.80;;;7.57;;
71959;SDS011;59832;51.146;14.024;2024-02-26T11:44:00;11.20;;;8.13;;
71959;SDS011;59832;51.146;14.024;2024-02-26T11:46:30;8.00;;;6.75;;
71959;SDS011;59832;51.146;14.024;2024-02-26T11:49:02;11.57;;;7.28;;
71959;SDS011;59832;51.146;14.024;2024-02-26T11:51:33;9.55;;;7.50;;
71959;SDS011;59832;51.146;14.024;2024-02-26T11:54:01;10.18;;;7.70;;
71959;SDS011;59832;51.146;14.024;2024-02-26T11:56:28;8.85;;;7.40;;
71959;SDS011;59832;51.146;14.024;2024-02-26T11:58:58;10.93;;;7.70;;
71959;SDS011;59832;51.146;14.024;2024-02-26T12:01:45;9.23;;;7.40;;
71959;SDS011;59832;51.146;14.024;2024-02-26T12:04:18;10.85;;;8.00;;
71959;SDS011;59832;51.146;14.024;2024-02-26T12:09:35;9.77;;;7.50;;
71959;SDS011;59832;51.146;14.024;2024-02-26T12:12:13;9.80;;;7.50;;
71959;SDS011;59832;51.146;14.024;2024-02-26T12:14:51;12.77;;;7.78;;
71959;SDS011;59832;51.146;14.024;2024-02-26T12:17:23;11.90;;;7.88;;
71959;SDS011;59832;51.146;14.024;2024-02-26T12:19:50;10.07;;;7.50;;
71959;SDS011;59832;51.146;14.024;2024-02-26T12:22:20;8.48;;;7.25;;
71959;SDS011;59832;51.146;14.024;2024-02-26T12:24:46;10.03;;;7.90;;
71959;SDS011;59832;51.146;14.024;2024-02-26T12:27:13;10.18;;;7.40;;
71959;SDS011;59832;51.146;14.024;2024-02-26T12:29:39;9.65;;;7.55;;
71959;SDS011;59832;51.146;14.024;2024-02-26T12:32:06;9.33;;;7.33;;
71959;SDS011;59832;51.146;14.024;2024-02-26T12:37:00;9.23;;;7.15;;
71959;SDS011;59832;51.146;14.024;2024-02-26T12:39:27;8.00;;;7.20;;
71959;SDS011;59832;51.146;14.024;2024-02-26T12:41:54;10.18;;;7.30;;
71959;SDS011;59832;51.146;14.024;2024-02-26T12:44:26;10.00;;;7.38;;
71959;SDS011;59832;51.146;14.024;2024-02-26T12:47:02;7.25;;;6.20;;
71959;SDS011;59832;51.146;14.024;2024-02-26T12:49:30;8.02;;;6.53;;
71959;SDS011;59832;51.146;14.024;2024-02-26T12:51:58;8.38;;;6.60;;
71959;SDS011;59832;51.146;14.024;2024-02-26T12:54:28;8.45;;;7.20;;
71959;SDS011;59832;51.146;14.024;2024-02-26T12:56:58;9.85;;;7.38;;
71959;SDS011;59832;51.146;14.024;2024-02-26T12:59:26;11.70;;;7.13;;
71959;SDS011;59832;51.146;14.024;2024-02-26T13:01:53;10.93;;;6.97;;
71959;SDS011;59832;51.146;14.024;2024-02-26T13:04:20;11.05;;;7.65;;
71959;SDS011;59832;51.146;14.024;2024-02-26T13:06:47;10.40;;;7.30;;
71959;SDS011;59832;51.146;14.024;2024-02-26T13:09:14;10.00;;;7.67;;
71959;SDS011;59832;51.146;14.024;2024-02-26T13:11:40;8.52;;;7.05;;
71959;SDS011;59832;51.146;14.024;2024-02-26T13:14:07;10.60;;;7.43;;
71959;SDS011;59832;51.146;14.024;2024-02-26T13:16:34;7.85;;;6.95;;
71959;SDS011;59832;51.146;14.024;2024-02-26T13:19:10;8.32;;;7.10;;
71959;SDS011;59832;51.146;14.024;2024-02-26T13:21:37;9.00;;;7.25;;
71959;SDS011;59832;51.146;14.024;2024-02-26T13:24:03;9.00;;;6.97;;
71959;SDS011;59832;51.146;14.024;2024-02-26T13:26:32;9.45;;;7.25;;
71959;SDS011;59832;51.146;14.024;2024-02-26T13:28:59;11.03;;;7.03;;
71959;SDS011;59832;51.146;14.024;2024-02-26T13:31:27;13.35;;;9.38;;
71959;SDS011;59832;51.146;14.024;2024-02-26T13:33:54;14.77;;;9.15;;
71959;SDS011;59832;51.146;14.024;2024-02-26T13:36:22;10.77;;;7.65;;
71959;SDS011;59832;51.146;14.024;2024-02-26T13:41:19;11.05;;;7.57;;
71959;SDS011;59832;51.146;14.024;2024-02-26T13:43:46;9.40;;;7.07;;
71959;SDS011;59832;51.146;14.024;2024-02-26T13:46:13;11.20;;;8.48;;
71959;SDS011;59832;51.146;14.024;2024-02-26T13:48:41;9.57;;;7.82;;
71959;SDS011;59832;51.146;14.024;2024-02-26T13:51:08;11.45;;;8.05;;
71959;SDS011;59832;51.146;14.024;2024-02-26T13:53:35;12.50;;;7.60;;
71959;SDS011;59832;51.146;14.024;2024-02-26T13:56:02;11.63;;;8.25;;
71959;SDS011;59832;51.146;14.024;2024-02-26T13:58:31;12.60;;;8.07;;
71959;SDS011;59832;51.146;14.024;2024-02-26T14:00:58;10.43;;;8.00;;
71959;SDS011;59832;51.146;14.024;2024-02-26T14:03:26;8.80;;;7.57;;
71959;SDS011;59832;51.146;14.024;2024-02-26T14:05:53;9.27;;;7.90;;
71959;SDS011;59832;51.146;14.024;2024-02-26T14:08:19;10.80;;;8.15;;
71959;SDS011;59832;51.146;14.024;2024-02-26T14:10:47;11.35;;;7.90;;
71959;SDS011;59832;51.146;14.024;2024-02-26T14:13:13;13.93;;;8.87;;
71959;SDS011;59832;51.146;14.024;2024-02-26T14:15:40;16.60;;;9.53;;
71959;SDS011;59832;51.146;14.024;2024-02-26T14:18:07;14.82;;;10.43;;
71959;SDS011;59832;51.146;14.024;2024-02-26T14:23:01;15.05;;;9.60;;
71959;SDS011;59832;51.146;14.024;2024-02-26T14:25:27;19.23;;;12.20;;
71959;SDS011;59832;51.146;14.024;2024-02-26T14:27:56;29.83;;;14.68;;
71959;SDS011;59832;51.146;14.024;2024-02-26T14:30:25;15.95;;;10.73;;
71959;SDS011;59832;51.146;14.024;2024-02-26T14:32:52;25.38;;;13.07;;
71959;SDS011;59832;51.146;14.024;2024-02-26T14:35:19;13.10;;;10.20;;
71959;SDS011;59832;51.146;14.024;2024-02-26T14:37:45;16.23;;;10.60;;
71959;SDS011;59832;51.146;14.024;2024-02-26T14:40:14;27.75;;;15.77;;
71959;SDS011;59832;51.146;14.024;2024-02-26T14:42:42;17.85;;;11.68;;
71959;SDS011;59832;51.146;14.024;2024-02-26T14:45:09;15.40;;;10.95;;
71959;SDS011;59832;51.146;14.024;2024-02-26T14:47:36;102.57;;;47.25;;